sensor_id;sensor_type;location;lat;lon;timestamp;pressure;altitude;pressure_sealevel;temperature;humidity
70902;BME280;58548;47.210;8.618;2023-02-10T00:01:44;95769.97;;;4.32;37.26
70902;BME280;58548;47.210;8.618;2023-02-10T00:04:13;95740.47;;;4.11;37.63
70902;BME280;58548;47.210;8.618;2023-02-10T00:06:42;95738.28;;;4.04;37.26
70902;BME280;58548;47.210;8.618;2023-02-10T00:09:11;95627.91;;;3.32;36.72
70902;BME280;58548;47.210;8.618;2023-02-10T00:11:40;95779.34;;;4.22;37.16
70902;BME280;58548;47.210;8.618;2023-02-10T00:14:25;95732.03;;;3.96;36.77
70902;BME280;58548;47.210;8.618;2023-02-10T00:16:52;95790.69;;;4.19;37.28
70902;BME280;58548;47.210;8.618;2023-02-10T00:19:20;95791.63;;;4.18;37.94
70902;BME280;58548;47.210;8.618;2023-02-10T00:21:50;95651.25;;;3.30;37.08
70902;BME280;58548;47.210;8.618;2023-02-10T00:24:16;95649.91;;;3.25;37.29
70902;BME280;58548;47.210;8.618;2023-02-10T00:26:43;95661.47;;;3.32;37.43
70902;BME280;58548;47.210;8.618;2023-02-10T00:29:09;95660.44;;;3.35;37.42
70902;BME280;58548;47.210;8.618;2023-02-10T00:31:35;95793.50;;;4.16;38.28
70902;BME280;58548;47.210;8.618;2023-02-10T00:34:01;95673.47;;;3.33;38.01
70902;BME280;58548;47.210;8.618;2023-02-10T00:36:27;95734.56;;;3.71;37.66
70902;BME280;58548;47.210;8.618;2023-02-10T00:38:56;95781.44;;;4.04;38.08
70902;BME280;58548;47.210;8.618;2023-02-10T00:41:23;95797.25;;;4.12;37.64
70902;BME280;58548;47.210;8.618;2023-02-10T00:43:50;95775.25;;;3.93;37.40
70902;BME280;58548;47.210;8.618;2023-02-10T00:46:20;95801.78;;;4.08;38.12
70902;BME280;58548;47.210;8.618;2023-02-10T00:48:50;95786.81;;;4.01;37.47
70902;BME280;58548;47.210;8.618;2023-02-10T00:51:18;95676.25;;;3.30;37.86
70902;BME280;58548;47.210;8.618;2023-02-10T00:53:45;95783.13;;;3.92;37.70
70902;BME280;58548;47.210;8.618;2023-02-10T00:56:13;95801.41;;;4.02;37.43
70902;BME280;58548;47.210;8.618;2023-02-10T00:58:39;95812.34;;;4.05;37.90
70902;BME280;58548;47.210;8.618;2023-02-10T01:01:05;95693.41;;;3.31;37.43
70902;BME280;58548;47.210;8.618;2023-02-10T01:03:32;95798.22;;;3.98;36.97
70902;BME280;58548;47.210;8.618;2023-02-10T01:05:58;95702.81;;;3.32;37.63
70902;BME280;58548;47.210;8.618;2023-02-10T01:08:24;95815.03;;;4.04;37.81
70902;BME280;58548;47.210;8.618;2023-02-10T01:11:01;95806.91;;;3.97;37.34
70902;BME280;58548;47.210;8.618;2023-02-10T01:13:28;95680.69;;;3.15;37.60
70902;BME280;58548;47.210;8.618;2023-02-10T01:15:58;95811.00;;;4.00;37.90
70902;BME280;58548;47.210;8.618;2023-02-10T01:18:29;95801.22;;;3.92;38.15
70902;BME280;58548;47.210;8.618;2023-02-10T01:20:55;95815.66;;;4.07;37.96
70902;BME280;58548;47.210;8.618;2023-02-10T01:23:21;95743.19;;;3.59;38.49
70902;BME280;58548;47.210;8.618;2023-02-10T01:25:47;95689.56;;;3.24;37.59
70902;BME280;58548;47.210;8.618;2023-02-10T01:28:13;95824.47;;;4.05;37.66
70902;BME280;58548;47.210;8.618;2023-02-10T01:30:39;95801.41;;;3.89;38.17
70902;BME280;58548;47.210;8.618;2023-02-10T01:33:07;95820.53;;;3.99;38.58
70902;BME280;58548;47.210;8.618;2023-02-10T01:35:37;95718.19;;;3.34;38.25
70902;BME280;58548;47.210;8.618;2023-02-10T01:38:03;95819.81;;;3.97;37.79
70902;BME280;58548;47.210;8.618;2023-02-10T01:40:29;95837.72;;;4.00;38.44
70902;BME280;58548;47.210;8.618;2023-02-10T01:42:55;95831.81;;;3.98;37.72
70902;BME280;58548;47.210;8.618;2023-02-10T01:45:36;95592.25;;;2.48;38.09
70902;BME280;58548;47.210;8.618;2023-02-10T01:48:04;95796.25;;;3.63;38.00
70902;BME280;58548;47.210;8.618;2023-02-10T01:50:41;95768.91;;;3.60;37.54
70902;BME280;58548;47.210;8.618;2023-02-10T01:53:10;95768.81;;;3.49;37.11
70902;BME280;58548;47.210;8.618;2023-02-10T01:55:40;95807.66;;;3.73;37.25
70902;BME280;58548;47.210;8.618;2023-02-10T01:58:09;95832.84;;;3.83;37.56
70902;BME280;58548;47.210;8.618;2023-02-10T02:00:37;95838.25;;;3.80;38.08
70902;BME280;58548;47.210;8.618;2023-02-10T02:03:04;95798.03;;;3.50;37.81
70902;BME280;58548;47.210;8.618;2023-02-10T02:05:35;95697.09;;;2.88;38.42
70902;BME280;58548;47.210;8.618;2023-02-10T02:08:24;95786.47;;;3.42;38.33
70902;BME280;58548;47.210;8.618;2023-02-10T02:16:39;95835.03;;;3.76;37.27
70902;BME280;58548;47.210;8.618;2023-02-10T02:27:55;95849.06;;;3.72;38.30
70902;BME280;58548;47.210;8.618;2023-02-10T02:36:16;95727.34;;;2.86;38.23
70902;BME280;58548;47.210;8.618;2023-02-10T02:38:49;95824.41;;;3.55;38.22
70902;BME280;58548;47.210;8.618;2023-02-10T02:41:24;95762.91;;;3.08;38.20
70902;BME280;58548;47.210;8.618;2023-02-10T02:43:50;95840.41;;;3.60;37.56
70902;BME280;58548;47.210;8.618;2023-02-10T02:46:27;95851.25;;;3.65;38.09
70902;BME280;58548;47.210;8.618;2023-02-10T02:52:15;95806.09;;;3.32;38.01
70902;BME280;58548;47.210;8.618;2023-02-10T02:57:09;95849.91;;;3.46;37.42
70902;BME280;58548;47.210;8.618;2023-02-10T02:59:40;95841.00;;;3.38;37.78
70902;BME280;58548;47.210;8.618;2023-02-10T03:02:17;95796.78;;;3.16;38.35
70902;BME280;58548;47.210;8.618;2023-02-10T03:04:45;95831.53;;;3.38;37.69
70902;BME280;58548;47.210;8.618;2023-02-10T03:07:14;95838.63;;;3.35;38.48
70902;BME280;58548;47.210;8.618;2023-02-10T03:09:43;95811.66;;;3.26;38.85
70902;BME280;58548;47.210;8.618;2023-02-10T03:12:11;95697.88;;;2.50;38.85
70902;BME280;58548;47.210;8.618;2023-02-10T03:14:39;95699.47;;;2.52;38.55
70902;BME280;58548;47.210;8.618;2023-02-10T03:17:05;95749.38;;;2.92;38.04
70902;BME280;58548;47.210;8.618;2023-02-10T03:19:34;95783.88;;;3.16;37.82
70902;BME280;58548;47.210;8.618;2023-02-10T03:22:03;95821.69;;;3.43;38.42
70902;BME280;58548;47.210;8.618;2023-02-10T03:24:29;95704.22;;;2.71;37.97
70902;BME280;58548;47.210;8.618;2023-02-10T03:26:55;95798.97;;;3.36;38.55
70902;BME280;58548;47.210;8.618;2023-02-10T03:29:21;95829.97;;;3.49;37.91
70902;BME280;58548;47.210;8.618;2023-02-10T03:31:49;95809.41;;;3.47;37.81
70902;BME280;58548;47.210;8.618;2023-02-10T03:34:15;95820.75;;;3.31;38.46
70902;BME280;58548;47.210;8.618;2023-02-10T03:36:47;95688.44;;;2.63;39.02
70902;BME280;58548;47.210;8.618;2023-02-10T03:39:15;95819.84;;;3.45;39.17
70902;BME280;58548;47.210;8.618;2023-02-10T03:41:41;95825.72;;;3.47;37.91
70902;BME280;58548;47.210;8.618;2023-02-10T03:44:09;95694.53;;;2.62;38.41
70902;BME280;58548;47.210;8.618;2023-02-10T03:46:36;95836.06;;;3.47;37.97
70902;BME280;58548;47.210;8.618;2023-02-10T03:49:03;95797.81;;;3.27;38.63
70902;BME280;58548;47.210;8.618;2023-02-10T03:51:30;95801.75;;;3.32;38.10
70902;BME280;58548;47.210;8.618;2023-02-10T03:53:56;95701.75;;;2.70;38.50
70902;BME280;58548;47.210;8.618;2023-02-10T03:56:22;95834.00;;;3.40;37.84
70902;BME280;58548;47.210;8.618;2023-02-10T03:58:50;95816.94;;;3.24;37.32
70902;BME280;58548;47.210;8.618;2023-02-10T04:01:18;95845.75;;;3.31;37.24
70902;BME280;58548;47.210;8.618;2023-02-10T04:03:45;95711.91;;;2.46;37.81
70902;BME280;58548;47.210;8.618;2023-02-10T04:06:12;95697.13;;;2.35;37.93
70902;BME280;58548;47.210;8.618;2023-02-10T04:08:39;95822.16;;;3.10;38.33
70902;BME280;58548;47.210;8.618;2023-02-10T04:11:09;95738.84;;;2.54;37.95
70902;BME280;58548;47.210;8.618;2023-02-10T04:13:39;95840.16;;;3.11;37.77
70902;BME280;58548;47.210;8.618;2023-02-10T04:16:10;95871.59;;;3.31;38.20
70902;BME280;58548;47.210;8.618;2023-02-10T04:18:37;95876.22;;;3.26;37.95
70902;BME280;58548;47.210;8.618;2023-02-10T04:21:09;95876.22;;;3.26;37.68
70902;BME280;58548;47.210;8.618;2023-02-10T04:23:36;95873.09;;;3.21;37.81
70902;BME280;58548;47.210;8.618;2023-02-10T04:26:05;95817.22;;;2.79;37.38
70902;BME280;58548;47.210;8.618;2023-02-10T04:28:31;95735.28;;;2.30;37.31
70902;BME280;58548;47.210;8.618;2023-02-10T04:31:02;95869.28;;;3.13;37.67
70902;BME280;58548;47.210;8.618;2023-02-10T04:33:31;95872.78;;;3.12;37.40
70902;BME280;58548;47.210;8.618;2023-02-10T04:35:59;95719.75;;;2.17;38.12
70902;BME280;58548;47.210;8.618;2023-02-10T04:38:29;95863.47;;;3.10;37.42
70902;BME280;58548;47.210;8.618;2023-02-10T04:40:56;95832.88;;;2.91;37.96
70902;BME280;58548;47.210;8.618;2023-02-10T04:43:22;95859.72;;;3.01;37.76
70902;BME280;58548;47.210;8.618;2023-02-10T04:45:48;95866.47;;;3.04;38.53
70902;BME280;58548;47.210;8.618;2023-02-10T04:48:14;95775.34;;;2.48;37.89
70902;BME280;58548;47.210;8.618;2023-02-10T04:50:43;95859.72;;;3.01;38.44
70902;BME280;58548;47.210;8.618;2023-02-10T04:53:09;95723.88;;;2.19;38.44
70902;BME280;58548;47.210;8.618;2023-02-10T04:55:38;95809.69;;;2.76;38.27
70902;BME280;58548;47.210;8.618;2023-02-10T04:58:04;95721.69;;;2.13;38.21
70902;BME280;58548;47.210;8.618;2023-02-10T05:00:30;95856.22;;;3.02;38.62
70902;BME280;58548;47.210;8.618;2023-02-10T05:02:56;95763.78;;;2.41;38.57
70902;BME280;58548;47.210;8.618;2023-02-10T05:05:22;95713.63;;;2.05;38.51
70902;BME280;58548;47.210;8.618;2023-02-10T05:07:51;95707.16;;;2.12;37.77
70902;BME280;58548;47.210;8.618;2023-02-10T05:10:20;95694.75;;;2.04;37.62
70902;BME280;58548;47.210;8.618;2023-02-10T05:12:49;95738.53;;;2.19;38.16
70902;BME280;58548;47.210;8.618;2023-02-10T05:15:15;95732.91;;;2.12;37.97
70902;BME280;58548;47.210;8.618;2023-02-10T05:17:44;95860.13;;;2.95;38.43
70902;BME280;58548;47.210;8.618;2023-02-10T05:20:13;95863.22;;;3.00;38.10
70902;BME280;58548;47.210;8.618;2023-02-10T05:22:40;95849.59;;;2.98;38.17
70902;BME280;58548;47.210;8.618;2023-02-10T05:25:07;95793.34;;;2.63;37.48
70902;BME280;58548;47.210;8.618;2023-02-10T05:27:41;95745.06;;;2.24;37.75
70902;BME280;58548;47.210;8.618;2023-02-10T05:30:07;95858.25;;;2.97;38.51
70902;BME280;58548;47.210;8.618;2023-02-10T05:32:38;95859.28;;;2.94;37.77
70902;BME280;58548;47.210;8.618;2023-02-10T05:35:07;95839.66;;;2.79;37.57
70902;BME280;58548;47.210;8.618;2023-02-10T05:37:33;95867.97;;;2.93;37.41
70902;BME280;58548;47.210;8.618;2023-02-10T05:40:00;95769.31;;;2.35;37.70
70902;BME280;58548;47.210;8.618;2023-02-10T05:42:26;95721.25;;;2.06;37.76
70902;BME280;58548;47.210;8.618;2023-02-10T05:44:52;95858.69;;;2.91;37.96
70902;BME280;58548;47.210;8.618;2023-02-10T05:47:18;95706.03;;;1.89;37.99
70902;BME280;58548;47.210;8.618;2023-02-10T05:49:46;95844.56;;;2.69;37.93
70902;BME280;58548;47.210;8.618;2023-02-10T05:52:13;95861.75;;;2.83;38.09
70902;BME280;58548;47.210;8.618;2023-02-10T05:54:39;95627.88;;;1.33;37.62
70902;BME280;58548;47.210;8.618;2023-02-10T05:57:08;95739.03;;;1.96;37.28
70902;BME280;58548;47.210;8.618;2023-02-10T05:59:34;95873.06;;;2.80;38.63
70902;BME280;58548;47.210;8.618;2023-02-10T06:02:05;95731.78;;;1.89;38.50
70902;BME280;58548;47.210;8.618;2023-02-10T06:04:31;95751.84;;;1.98;37.25
70902;BME280;58548;47.210;8.618;2023-02-10T06:06:57;95878.84;;;2.71;37.42
70902;BME280;58548;47.210;8.618;2023-02-10T06:09:26;95885.00;;;2.68;37.54
70902;BME280;58548;47.210;8.618;2023-02-10T06:11:53;95827.44;;;2.26;38.28
70902;BME280;58548;47.210;8.618;2023-02-10T06:14:20;95883.50;;;2.51;38.17
70902;BME280;58548;47.210;8.618;2023-02-10T06:16:46;95903.53;;;2.61;38.32
70902;BME280;58548;47.210;8.618;2023-02-10T06:19:14;95758.41;;;1.75;38.00
70902;BME280;58548;47.210;8.618;2023-02-10T06:21:40;95805.13;;;1.98;38.46
70902;BME280;58548;47.210;8.618;2023-02-10T06:24:09;95770.19;;;1.79;38.28
70902;BME280;58548;47.210;8.618;2023-02-10T06:26:36;95871.25;;;2.40;37.94
70902;BME280;58548;47.210;8.618;2023-02-10T06:29:02;95889.75;;;2.47;37.91
70902;BME280;58548;47.210;8.618;2023-02-10T06:31:30;95797.03;;;1.89;38.01
70902;BME280;58548;47.210;8.618;2023-02-10T06:33:56;95797.13;;;1.88;37.73
70902;BME280;58548;47.210;8.618;2023-02-10T06:36:22;95793.38;;;1.79;37.92
70902;BME280;58548;47.210;8.618;2023-02-10T06:38:51;95891.88;;;2.40;37.36
70902;BME280;58548;47.210;8.618;2023-02-10T06:41:19;95910.72;;;2.55;38.52
70902;BME280;58548;47.210;8.618;2023-02-10T06:43:45;95686.72;;;1.11;38.61
70902;BME280;58548;47.210;8.618;2023-02-10T06:46:11;95931.63;;;2.65;38.16
70902;BME280;58548;47.210;8.618;2023-02-10T06:48:39;95916.44;;;2.61;38.50
70902;BME280;58548;47.210;8.618;2023-02-10T06:51:05;95793.56;;;1.90;37.87
70902;BME280;58548;47.210;8.618;2023-02-10T06:53:32;95662.28;;;1.03;37.89
70902;BME280;58548;47.210;8.618;2023-02-10T06:55:58;95921.03;;;2.70;38.04
70902;BME280;58548;47.210;8.618;2023-02-10T06:58:26;95928.09;;;2.81;38.57
70902;BME280;58548;47.210;8.618;2023-02-10T07:00:57;95936.47;;;2.84;38.71
70902;BME280;58548;47.210;8.618;2023-02-10T07:03:27;95933.72;;;2.88;38.25
70902;BME280;58548;47.210;8.618;2023-02-10T07:05:53;95835.28;;;2.24;38.27
70902;BME280;58548;47.210;8.618;2023-02-10T07:08:19;95838.22;;;2.33;38.06
70902;BME280;58548;47.210;8.618;2023-02-10T07:10:45;95807.78;;;2.10;37.98
70902;BME280;58548;47.210;8.618;2023-02-10T07:13:13;95931.91;;;3.03;37.83
70902;BME280;58548;47.210;8.618;2023-02-10T07:15:40;95929.53;;;2.99;38.56
70902;BME280;58548;47.210;8.618;2023-02-10T07:18:11;95943.03;;;3.17;38.67
70902;BME280;58548;47.210;8.618;2023-02-10T07:20:40;95936.53;;;3.25;39.01
70902;BME280;58548;47.210;8.618;2023-02-10T07:23:06;95881.66;;;3.08;39.47
70902;BME280;58548;47.210;8.618;2023-02-10T07:25:32;95793.44;;;2.89;38.83
70902;BME280;58548;47.210;8.618;2023-02-10T07:28:01;95790.41;;;3.35;40.25
70902;BME280;58548;47.210;8.618;2023-02-10T07:30:30;95803.56;;;4.08;39.06
70902;BME280;58548;47.210;8.618;2023-02-10T07:32:56;95929.06;;;5.61;37.80
70902;BME280;58548;47.210;8.618;2023-02-10T07:35:22;95928.84;;;6.45;36.97
70902;BME280;58548;47.210;8.618;2023-02-10T07:37:50;95816.97;;;6.60;36.16
70902;BME280;58548;47.210;8.618;2023-02-10T07:40:19;95800.38;;;7.37;35.16
70902;BME280;58548;47.210;8.618;2023-02-10T07:42:48;95827.63;;;8.26;33.85
70902;BME280;58548;47.210;8.618;2023-02-10T07:45:16;95913.97;;;9.43;32.02
70902;BME280;58548;47.210;8.618;2023-02-10T07:47:42;95705.06;;;8.88;31.69
70902;BME280;58548;47.210;8.618;2023-02-10T07:50:08;95875.78;;;10.66;30.41
70902;BME280;58548;47.210;8.618;2023-02-10T07:52:34;95825.72;;;11.07;30.24
70902;BME280;58548;47.210;8.618;2023-02-10T07:55:03;95826.59;;;11.79;28.46
70902;BME280;58548;47.210;8.618;2023-02-10T07:57:31;95817.25;;;12.37;28.29
70902;BME280;58548;47.210;8.618;2023-02-10T07:59:59;95816.63;;;13.11;27.31
70902;BME280;58548;47.210;8.618;2023-02-10T08:02:28;95808.91;;;13.84;26.10
70902;BME280;58548;47.210;8.618;2023-02-10T08:04:58;95903.44;;;15.13;24.91
70902;BME280;58548;47.210;8.618;2023-02-10T08:07:25;95826.66;;;15.33;23.89
70902;BME280;58548;47.210;8.618;2023-02-10T08:09:53;95836.38;;;16.09;23.93
70902;BME280;58548;47.210;8.618;2023-02-10T08:12:22;95917.94;;;17.15;22.15
70902;BME280;58548;47.210;8.618;2023-02-10T08:14:48;95934.50;;;17.89;22.30
70902;BME280;58548;47.210;8.618;2023-02-10T08:17:14;95929.66;;;18.43;21.35
70902;BME280;58548;47.210;8.618;2023-02-10T08:19:40;95934.03;;;18.93;21.16
70902;BME280;58548;47.210;8.618;2023-02-10T08:22:06;95838.72;;;18.93;20.32
70902;BME280;58548;47.210;8.618;2023-02-10T08:24:33;95817.66;;;19.33;19.77
70902;BME280;58548;47.210;8.618;2023-02-10T08:27:04;95929.22;;;20.59;18.28
70902;BME280;58548;47.210;8.618;2023-02-10T08:29:32;95868.16;;;20.59;17.50
70902;BME280;58548;47.210;8.618;2023-02-10T08:32:00;95874.38;;;20.99;17.12
70902;BME280;58548;47.210;8.618;2023-02-10T08:34:26;95954.97;;;21.77;16.98
70902;BME280;58548;47.210;8.618;2023-02-10T08:36:53;95843.00;;;21.53;16.51
70902;BME280;58548;47.210;8.618;2023-02-10T08:39:21;95922.34;;;22.39;15.94
70902;BME280;58548;47.210;8.618;2023-02-10T08:41:48;95938.03;;;22.91;14.35
70902;BME280;58548;47.210;8.618;2023-02-10T08:44:14;95955.09;;;23.27;14.77
70902;BME280;58548;47.210;8.618;2023-02-10T08:46:41;95958.00;;;23.56;14.37
70902;BME280;58548;47.210;8.618;2023-02-10T08:49:10;95864.59;;;23.32;14.22
70902;BME280;58548;47.210;8.618;2023-02-10T08:51:36;95867.34;;;23.56;14.17
70902;BME280;58548;47.210;8.618;2023-02-10T08:54:06;95895.63;;;24.00;12.74
70902;BME280;58548;47.210;8.618;2023-02-10T08:56:35;95956.38;;;24.64;13.14
70902;BME280;58548;47.210;8.618;2023-02-10T08:59:05;95962.91;;;24.80;12.67
70902;BME280;58548;47.210;8.618;2023-02-10T09:01:31;95957.69;;;24.97;12.78
70902;BME280;58548;47.210;8.618;2023-02-10T09:03:59;95873.38;;;24.77;12.86
70902;BME280;58548;47.210;8.618;2023-02-10T09:06:31;95888.59;;;25.18;12.71
70902;BME280;58548;47.210;8.618;2023-02-10T09:09:08;95861.19;;;25.39;12.40
70902;BME280;58548;47.210;8.618;2023-02-10T09:11:37;95930.78;;;26.02;11.74
70902;BME280;58548;47.210;8.618;2023-02-10T09:14:06;95854.94;;;25.80;11.68
70902;BME280;58548;47.210;8.618;2023-02-10T09:16:34;95850.97;;;25.99;11.61
70902;BME280;58548;47.210;8.618;2023-02-10T09:19:01;95907.41;;;26.49;11.47
70902;BME280;58548;47.210;8.618;2023-02-10T09:21:28;95863.84;;;26.54;11.21
70902;BME280;58548;47.210;8.618;2023-02-10T09:23:55;95861.03;;;26.66;12.02
70902;BME280;58548;47.210;8.618;2023-02-10T09:26:21;95939.06;;;27.31;11.82
70902;BME280;58548;47.210;8.618;2023-02-10T09:28:47;95896.03;;;27.20;11.09
70902;BME280;58548;47.210;8.618;2023-02-10T09:31:14;95967.25;;;27.78;10.99
70902;BME280;58548;47.210;8.618;2023-02-10T09:33:44;95887.97;;;27.43;11.35
70902;BME280;58548;47.210;8.618;2023-02-10T09:36:17;95944.34;;;27.70;10.67
70902;BME280;58548;47.210;8.618;2023-02-10T09:38:46;95874.63;;;27.26;10.10
70902;BME280;58548;47.210;8.618;2023-02-10T09:44:09;95965.50;;;27.44;10.16
70902;BME280;58548;47.210;8.618;2023-02-10T09:52:56;95969.97;;;27.83;10.48
70902;BME280;58548;47.210;8.618;2023-02-10T09:55:13;95969.78;;;28.17;10.96
70902;BME280;58548;47.210;8.618;2023-02-10T09:57:49;95939.97;;;28.19;10.15
70902;BME280;58548;47.210;8.618;2023-02-10T10:03:01;95961.75;;;28.55;9.85
70902;BME280;58548;47.210;8.618;2023-02-10T10:05:41;95967.13;;;28.55;9.91
70902;BME280;58548;47.210;8.618;2023-02-10T10:08:40;95973.47;;;28.43;10.05
70902;BME280;58548;47.210;8.618;2023-02-10T10:11:44;95961.75;;;28.60;9.99
70902;BME280;58548;47.210;8.618;2023-02-10T10:14:32;95976.25;;;28.54;9.98
70902;BME280;58548;47.210;8.618;2023-02-10T10:17:23;95866.69;;;27.91;10.06
70902;BME280;58548;47.210;8.618;2023-02-10T10:20:01;95964.09;;;28.79;10.21
70902;BME280;58548;47.210;8.618;2023-02-10T10:28:24;95969.59;;;29.04;9.72
70902;BME280;58548;47.210;8.618;2023-02-10T10:31:00;95958.34;;;29.13;9.49
70902;BME280;58548;47.210;8.618;2023-02-10T10:33:39;95972.16;;;29.32;9.38
70902;BME280;58548;47.210;8.618;2023-02-10T10:36:13;95953.38;;;29.47;9.04
70902;BME280;58548;47.210;8.618;2023-02-10T10:38:46;95921.94;;;29.58;8.99
70902;BME280;58548;47.210;8.618;2023-02-10T10:41:23;95833.88;;;29.38;9.16
70902;BME280;58548;47.210;8.618;2023-02-10T10:43:55;95931.19;;;30.24;8.87
70902;BME280;58548;47.210;8.618;2023-02-10T10:48:54;95944.63;;;30.45;8.80
70902;BME280;58548;47.210;8.618;2023-02-10T10:51:21;95861.38;;;29.71;8.25
70902;BME280;58548;47.210;8.618;2023-02-10T10:53:52;95829.28;;;29.33;8.39
70902;BME280;58548;47.210;8.618;2023-02-10T10:59:10;95840.53;;;29.15;8.54
70902;BME280;58548;47.210;8.618;2023-02-10T11:01:43;95853.19;;;29.19;8.55
70902;BME280;58548;47.210;8.618;2023-02-10T11:04:18;95928.97;;;29.80;8.31
70902;BME280;58548;47.210;8.618;2023-02-10T11:06:52;95833.84;;;29.33;8.57
70902;BME280;58548;47.210;8.618;2023-02-10T11:09:33;95893.72;;;30.07;7.96
70902;BME280;58548;47.210;8.618;2023-02-10T11:12:04;95922.00;;;30.31;7.56
70902;BME280;58548;47.210;8.618;2023-02-10T11:14:38;95913.94;;;30.05;7.43
70902;BME280;58548;47.210;8.618;2023-02-10T11:17:39;95921.97;;;29.84;7.78
70902;BME280;58548;47.210;8.618;2023-02-10T11:22:33;95806.72;;;29.40;8.04
70902;BME280;58548;47.210;8.618;2023-02-10T11:25:02;95898.28;;;30.12;8.07
70902;BME280;58548;47.210;8.618;2023-02-10T11:27:30;95923.91;;;30.15;8.20
70902;BME280;58548;47.210;8.618;2023-02-10T11:29:59;95848.19;;;29.80;7.44
70902;BME280;58548;47.210;8.618;2023-02-10T11:32:34;95895.06;;;30.15;7.91
70902;BME280;58548;47.210;8.618;2023-02-10T11:35:04;95815.34;;;29.42;7.67
70902;BME280;58548;47.210;8.618;2023-02-10T11:37:38;95915.56;;;30.06;7.55
70902;BME280;58548;47.210;8.618;2023-02-10T11:40:19;95918.25;;;30.06;7.43
70902;BME280;58548;47.210;8.618;2023-02-10T11:42:52;95793.66;;;28.90;7.53
70902;BME280;58548;47.210;8.618;2023-02-10T11:45:26;95790.09;;;28.74;8.01
70902;BME280;58548;47.210;8.618;2023-02-10T11:48:19;95869.88;;;28.63;7.18
70902;BME280;58548;47.210;8.618;2023-02-10T11:50:45;95906.31;;;28.86;7.83
70902;BME280;58548;47.210;8.618;2023-02-10T11:53:28;95875.38;;;28.79;7.73
70902;BME280;58548;47.210;8.618;2023-02-10T12:09:49;95899.72;;;29.15;8.10
70902;BME280;58548;47.210;8.618;2023-02-10T12:17:28;95896.94;;;28.94;8.20
70902;BME280;58548;47.210;8.618;2023-02-10T12:20:34;95895.44;;;29.19;8.00
70902;BME280;58548;47.210;8.618;2023-02-10T12:34:38;95885.31;;;29.52;7.14
70902;BME280;58548;47.210;8.618;2023-02-10T12:40:21;95889.69;;;30.00;7.19
70902;BME280;58548;47.210;8.618;2023-02-10T12:54:34;95876.75;;;30.12;7.29
70902;BME280;58548;47.210;8.618;2023-02-10T12:57:12;95872.47;;;30.06;7.23
70902;BME280;58548;47.210;8.618;2023-02-10T12:59:59;95770.38;;;29.37;7.34
70902;BME280;58548;47.210;8.618;2023-02-10T13:02:42;95850.38;;;29.99;7.13
70902;BME280;58548;47.210;8.618;2023-02-10T13:05:17;95688.03;;;29.10;7.33
70902;BME280;58548;47.210;8.618;2023-02-10T13:10:51;95788.13;;;29.85;7.60
70902;BME280;58548;47.210;8.618;2023-02-10T13:13:25;95771.19;;;29.84;7.29
70902;BME280;58548;47.210;8.618;2023-02-10T13:16:15;95862.16;;;30.39;7.04
70902;BME280;58548;47.210;8.618;2023-02-10T13:21:53;95756.63;;;29.23;7.90
70902;BME280;58548;47.210;8.618;2023-02-10T13:24:28;95862.72;;;29.94;7.67
70902;BME280;58548;47.210;8.618;2023-02-10T13:33:04;95868.13;;;29.84;8.03
70902;BME280;58548;47.210;8.618;2023-02-10T13:35:40;95851.91;;;29.48;7.92
70902;BME280;58548;47.210;8.618;2023-02-10T13:38:16;95759.13;;;28.56;8.42
70902;BME280;58548;47.210;8.618;2023-02-10T13:43:25;95879.69;;;28.80;8.56
70902;BME280;58548;47.210;8.618;2023-02-10T13:45:54;95767.41;;;28.01;8.59
70902;BME280;58548;47.210;8.618;2023-02-10T13:48:27;95859.16;;;28.68;8.43
70902;BME280;58548;47.210;8.618;2023-02-10T13:51:08;95873.75;;;28.83;8.56
70902;BME280;58548;47.210;8.618;2023-02-10T13:53:39;95883.47;;;28.89;8.58
70902;BME280;58548;47.210;8.618;2023-02-10T13:56:25;95859.69;;;28.70;8.85
70902;BME280;58548;47.210;8.618;2023-02-10T14:01:38;95866.59;;;28.13;8.79
70902;BME280;58548;47.210;8.618;2023-02-10T14:04:28;95859.44;;;27.91;9.28
70902;BME280;58548;47.210;8.618;2023-02-10T14:06:57;95783.06;;;27.44;8.89
70902;BME280;58548;47.210;8.618;2023-02-10T14:12:01;95788.53;;;27.49;9.72
70902;BME280;58548;47.210;8.618;2023-02-10T14:14:35;95844.31;;;27.47;9.25
70902;BME280;58548;47.210;8.618;2023-02-10T14:17:07;95895.75;;;27.44;9.44
70902;BME280;58548;47.210;8.618;2023-02-10T14:19:44;95815.09;;;26.79;9.38
70902;BME280;58548;47.210;8.618;2023-02-10T14:22:26;95881.00;;;27.19;10.23
70902;BME280;58548;47.210;8.618;2023-02-10T14:25:00;95877.84;;;27.00;10.23
70902;BME280;58548;47.210;8.618;2023-02-10T14:27:30;95784.56;;;26.13;10.24
70902;BME280;58548;47.210;8.618;2023-02-10T14:30:03;95860.47;;;26.24;10.59
70902;BME280;58548;47.210;8.618;2023-02-10T14:32:43;95872.88;;;25.96;10.31
70902;BME280;58548;47.210;8.618;2023-02-10T14:35:36;95886.50;;;25.78;10.77
70902;BME280;58548;47.210;8.618;2023-02-10T14:38:04;95758.25;;;24.67;10.79
70902;BME280;58548;47.210;8.618;2023-02-10T14:40:33;95871.91;;;24.98;10.91
70902;BME280;58548;47.210;8.618;2023-02-10T14:43:02;95881.84;;;24.74;11.03
70902;BME280;58548;47.210;8.618;2023-02-10T14:45:29;95883.00;;;24.54;11.22
70902;BME280;58548;47.210;8.618;2023-02-10T14:48:06;95876.41;;;24.33;11.56
70902;BME280;58548;47.210;8.618;2023-02-10T14:50:35;95896.72;;;24.22;11.52
70902;BME280;58548;47.210;8.618;2023-02-10T14:53:03;95775.34;;;23.23;11.76
70902;BME280;58548;47.210;8.618;2023-02-10T14:55:35;95888.13;;;23.66;11.89
70902;BME280;58548;47.210;8.618;2023-02-10T14:58:12;95894.44;;;23.53;12.11
70902;BME280;58548;47.210;8.618;2023-02-10T15:01:12;95797.00;;;22.47;11.90
70902;BME280;58548;47.210;8.618;2023-02-10T15:03:41;95899.56;;;22.68;12.48
70902;BME280;58548;47.210;8.618;2023-02-10T15:06:14;95800.25;;;21.87;12.52
70902;BME280;58548;47.210;8.618;2023-02-10T15:11:33;95861.19;;;21.63;12.99
70902;BME280;58548;47.210;8.618;2023-02-10T15:14:29;95899.66;;;21.53;13.15
70902;BME280;58548;47.210;8.618;2023-02-10T15:17:06;95886.38;;;21.15;13.40
70902;BME280;58548;47.210;8.618;2023-02-10T15:19:35;95785.63;;;20.22;13.52
70902;BME280;58548;47.210;8.618;2023-02-10T15:22:01;95877.19;;;20.45;14.40
70902;BME280;58548;47.210;8.618;2023-02-10T15:24:31;95885.00;;;20.26;14.59